Time;durP1;ratioP1;P1;durP2;ratioP2;P2;SDS_P1;SDS_P2;PMS_P1;PMS_P2;Temp;Humidity;BMP_temperature;BMP_pressure;BME280_temperature;BME280_humidity;BME280_pressure;Samples;Min_cycle;Max_cycle;Signal;HPM_P1;HPM_P2
2022/05/06 00:00:06;;;;;;;3.87;3.67;;;18.10;70.00;18.50;96764.00;;;;5082252;28;20268;-82
2022/05/06 00:02:33;;;;;;;4.23;3.90;;;18.20;70.00;18.50;96768.00;;;;5081909;28;20218;-82
2022/05/06 00:05:01;;;;;;;4.10;3.80;;;18.10;69.90;18.50;96768.00;;;;5075403;28;20232;-81
2022/05/06 00:07:28;;;;;;;4.37;4.07;;;18.10;70.00;18.50;96771.00;;;;5071526;28;20192;-81
2022/05/06 00:09:56;;;;;;;3.77;3.57;;;18.10;70.00;18.50;96776.00;;;;5063858;28;20188;-81
2022/05/06 00:12:23;;;;;;;4.03;3.73;;;18.10;70.10;18.50;96783.00;;;;5075810;28;20196;-81
2022/05/06 00:14:50;;;;;;;4.70;4.40;;;18.10;70.20;18.50;96783.00;;;;5071208;28;20580;-81
2022/05/06 00:17:18;;;;;;;3.87;3.67;;;18.10;70.20;18.50;96790.00;;;;5055624;28;20192;-81
2022/05/06 00:19:45;;;;;;;4.03;3.73;;;18.10;70.40;18.50;96791.00;;;;5059800;28;20196;-81
2022/05/06 00:22:14;;;;;;;3.80;3.60;;;18.10;70.70;18.50;96789.00;;;;5074832;28;20192;-81
2022/05/06 00:24:41;;;;;;;4.57;4.17;;;18.00;70.70;18.50;96793.00;;;;5073533;28;20216;-80
2022/05/06 00:27:09;;;;;;;4.30;4.00;;;18.00;70.70;18.50;96791.00;;;;5075262;28;20203;-82
2022/05/06 00:29:36;;;;;;;4.50;4.20;;;18.00;70.80;18.50;96793.00;;;;5075343;28;20563;-80
2022/05/06 00:32:03;;;;;;;4.53;4.23;;;18.00;70.70;18.50;96794.00;;;;5056361;28;20243;-81
2022/05/06 00:34:30;;;;;;;4.63;4.23;;;18.00;70.70;18.50;96798.00;;;;5072198;28;20219;-81
2022/05/06 00:36:57;;;;;;;3.83;3.63;;;18.00;70.80;18.50;96804.00;;;;5069335;28;20193;-81
2022/05/06 00:39:26;;;;;;;4.47;4.17;;;18.10;70.90;18.50;96813.00;;;;5055060;28;20208;-81
2022/05/06 00:41:54;;;;;;;4.53;4.13;;;18.00;71.00;18.50;96821.00;;;;5073987;28;20560;-81
2022/05/06 00:44:22;;;;;;;4.07;3.77;;;18.00;71.00;18.50;96807.00;;;;5073729;28;21678;-81
2022/05/06 00:46:52;;;;;;;4.30;3.97;;;18.00;71.10;18.50;96812.00;;;;5071462;28;20197;-82
2022/05/06 00:49:21;;;;;;;4.30;4.00;;;18.00;71.20;18.50;96815.00;;;;5068472;28;20188;-81
2022/05/06 00:51:51;;;;;;;3.87;3.67;;;18.00;71.30;18.50;96819.00;;;;5074647;28;20203;-81
2022/05/06 00:54:21;;;;;;;4.40;4.10;;;18.00;71.30;18.50;96814.00;;;;5073857;28;20315;-81
2022/05/06 00:56:51;;;;;;;4.37;4.07;;;18.00;71.40;18.50;96806.00;;;;5074755;28;20226;-81
2022/05/06 00:59:18;;;;;;;3.90;3.60;;;18.00;71.40;18.50;96808.00;;;;5075058;28;20192;-81
2022/05/06 01:01:45;;;;;;;4.23;3.93;;;18.00;71.40;18.50;96803.00;;;;5069604;28;20214;-81
2022/05/06 01:04:14;;;;;;;4.30;4.00;;;18.10;71.50;18.50;96797.00;;;;5073732;28;20239;-81
2022/05/06 01:06:41;;;;;;;4.53;4.23;;;18.10;71.50;18.50;96794.00;;;;5073819;28;20228;-81
2022/05/06 01:09:08;;;;;;;4.27;4.00;;;18.10;71.40;18.50;96783.00;;;;5074499;28;20207;-81
2022/05/06 01:11:35;;;;;;;4.50;4.10;;;18.00;71.40;18.50;96783.00;;;;5054196;28;20670;-80
2022/05/06 01:14:04;;;;;;;4.60;4.20;;;18.00;71.40;18.50;96782.00;;;;5054493;28;20221;-82
2022/05/06 01:16:34;;;;;;;4.40;4.07;;;18.00;71.40;18.50;96788.00;;;;5062723;28;20196;-81
2022/05/06 01:19:03;;;;;;;4.93;4.60;;;18.00;71.30;18.40;96792.00;;;;5063030;28;20203;-81
2022/05/06 01:21:36;;;;;;;4.70;4.30;;;18.00;71.40;18.40;96802.00;;;;5074565;28;20191;-82
2022/05/06 01:24:05;;;;;;;4.20;3.90;;;18.00;71.50;18.40;96800.00;;;;5061711;28;20235;-81
2022/05/06 01:26:59;;;;;;;4.40;4.07;;;17.90;71.60;18.40;96806.00;;;;5054609;28;20208;-82
2022/05/06 01:29:29;;;;;;;3.90;3.70;;;17.90;71.60;18.40;96798.00;;;;5064499;28;20207;-80
2022/05/06 01:31:57;;;;;;;4.23;3.93;;;17.90;71.90;18.40;96795.00;;;;5067600;28;20196;-81
2022/05/06 01:34:32;;;;;;;4.00;3.70;;;17.90;72.00;18.50;96793.00;;;;5073649;28;20688;-81
2022/05/06 01:37:04;;;;;;;3.93;3.73;;;17.90;72.10;18.50;96794.00;;;;5054452;28;20184;-80
2022/05/06 01:39:39;;;;;;;4.57;4.23;;;17.90;72.30;18.50;96800.00;;;;5066855;28;20204;-81
2022/05/06 01:42:12;;;;;;;4.17;3.97;;;17.90;72.40;18.50;96797.00;;;;5073364;28;20202;-83
2022/05/06 01:44:44;;;;;;;4.13;3.83;;;17.90;72.60;18.50;96801.00;;;;5073877;28;20216;-80
2022/05/06 01:47:19;;;;;;;4.63;4.33;;;18.00;72.80;18.50;96794.00;;;;5074970;28;20184;-82
2022/05/06 01:49:48;;;;;;;4.27;3.97;;;18.00;72.70;18.60;96796.00;;;;5076552;28;20685;-82
2022/05/06 01:52:18;;;;;;;3.67;3.40;;;18.00;72.60;18.60;96791.00;;;;5077203;28;20696;-82
2022/05/06 01:54:47;;;;;;;3.80;3.50;;;18.00;72.50;18.60;96794.00;;;;5074221;28;20224;-82
2022/05/06 01:57:15;;;;;;;3.77;3.50;;;18.00;72.40;18.60;96792.00;;;;5066055;28;20249;-82
2022/05/06 01:59:42;;;;;;;3.50;3.30;;;18.00;72.40;18.60;96783.00;;;;5073744;28;20218;-82
2022/05/06 02:02:09;;;;;;;3.40;3.20;;;18.10;72.50;18.60;96787.00;;;;5073175;28;20192;-82
2022/05/06 02:07:21;;;;;;;3.17;2.97;;;18.00;72.10;18.60;96782.00;;;;5091506;28;20179;-85
2022/05/06 02:09:49;;;;;;;3.40;3.10;;;18.10;72.00;18.60;96781.00;;;;5091626;28;20192;-86
2022/05/06 02:12:16;;;;;;;3.13;2.93;;;18.00;71.80;18.50;96789.00;;;;5091970;28;20241;-86
2022/05/06 02:14:44;;;;;;;3.60;3.30;;;18.00;71.90;18.50;96794.00;;;;5086401;28;20227;-84
2022/05/06 02:17:11;;;;;;;3.20;3.00;;;18.00;71.90;18.50;96782.00;;;;5072951;28;20208;-85
2022/05/06 02:19:38;;;;;;;3.27;3.07;;;18.00;71.80;18.50;96786.00;;;;5073439;28;20287;-85
2022/05/06 02:22:05;;;;;;;3.50;3.20;;;18.00;71.80;18.40;96786.00;;;;5075416;28;20707;-85
2022/05/06 02:24:32;;;;;;;3.87;3.30;;;18.00;71.70;18.40;96786.00;;;;5067971;28;20220;-85
2022/05/06 02:27:01;;;;;;;3.67;3.37;;;17.90;71.70;18.40;96782.00;;;;5056157;28;20205;-85
2022/05/06 02:29:28;;;;;;;3.40;3.10;;;17.90;71.90;18.40;96781.00;;;;5066645;28;20206;-85
2022/05/06 02:34:39;;;;;;;2.90;2.70;;;17.90;71.90;18.30;96791.00;;;;5073399;28;20293;-86
2022/05/06 02:37:06;;;;;;;3.67;3.47;;;17.90;72.00;18.30;96787.00;;;;5075112;28;20720;-85
2022/05/06 02:39:33;;;;;;;2.80;2.60;;;17.90;72.20;18.30;96790.00;;;;5075133;28;20200;-85
2022/05/06 02:42:02;;;;;;;3.17;2.97;;;17.90;72.10;18.40;96787.00;;;;5074950;28;20570;-85
2022/05/06 02:44:29;;;;;;;3.00;2.80;;;17.90;72.10;18.40;96781.00;;;;5074870;28;20224;-85
2022/05/06 02:46:56;;;;;;;2.93;2.73;;;17.90;72.20;18.40;96770.00;;;;5057924;28;20208;-85
2022/05/06 02:49:23;;;;;;;2.80;2.70;;;17.90;72.10;18.40;96771.00;;;;5055082;28;20196;-86
2022/05/06 02:51:50;;;;;;;3.27;3.07;;;18.00;72.20;18.40;96768.00;;;;5063414;28;20192;-86
2022/05/06 02:54:21;;;;;;;2.57;2.47;;;17.90;72.00;18.40;96767.00;;;;5074869;28;20220;-86
2022/05/06 02:56:49;;;;;;;3.10;2.90;;;17.90;72.00;18.40;96768.00;;;;5066800;28;20258;-86
2022/05/06 02:59:17;;;;;;;3.57;3.27;;;17.90;72.00;18.30;96773.00;;;;5054164;28;20198;-85
2022/05/06 03:01:44;;;;;;;3.47;3.27;;;17.90;72.00;18.40;96773.00;;;;5064027;28;20193;-85
2022/05/06 03:04:13;;;;;;;4.03;3.73;;;18.30;72.20;18.40;96768.00;;;;5061183;28;20715;-85
2022/05/06 03:06:42;;;;;;;4.30;3.90;;;17.90;72.00;18.40;96763.00;;;;5062330;28;20197;-86
2022/05/06 03:09:10;;;;;;;4.47;4.17;;;17.90;71.90;18.40;96767.00;;;;5058005;28;20288;-85
2022/05/06 03:11:37;;;;;;;4.43;4.20;;;17.90;71.90;18.40;96766.00;;;;5054423;28;20666;-86
2022/05/06 03:14:05;;;;;;;4.90;4.60;;;17.90;72.00;18.40;96765.00;;;;5054132;28;20271;-85
2022/05/06 03:16:33;;;;;;;5.17;4.77;;;17.90;72.00;18.40;96767.00;;;;5054068;28;20662;-85
2022/05/06 03:19:00;;;;;;;4.77;4.37;;;17.90;72.00;18.40;96767.00;;;;5054496;28;20193;-85
2022/05/06 03:21:27;;;;;;;5.10;4.70;;;17.90;72.00;18.40;96767.00;;;;5054362;28;20197;-85
2022/05/06 03:23:55;;;;;;;5.07;4.77;;;17.90;72.00;18.40;96765.00;;;;5059708;28;20223;-85
2022/05/06 03:26:22;;;;;;;5.23;4.77;;;17.90;72.00;18.30;96761.00;;;;5073947;28;20672;-85
2022/05/06 03:28:49;;;;;;;5.40;5.00;;;17.90;71.90;18.30;96763.00;;;;5074685;28;20841;-86
2022/05/06 03:31:18;;;;;;;5.73;5.37;;;17.80;71.90;18.30;96764.00;;;;5075936;28;20196;-86
2022/05/06 03:33:47;;;;;;;5.33;4.93;;;17.90;72.20;18.30;96758.00;;;;5054189;28;20861;-85
2022/05/06 03:36:15;;;;;;;5.27;4.90;;;17.80;72.30;18.40;96762.00;;;;5066831;28;20606;-86
2022/05/06 03:38:42;;;;;;;5.87;5.37;;;17.80;72.30;18.40;96759.00;;;;5073977;28;20219;-85
2022/05/06 03:41:08;;;;;;;5.73;5.23;;;17.80;72.30;18.40;96764.00;;;;5066140;28;20201;-84
2022/05/06 03:43:36;;;;;;;5.90;5.40;;;17.80;72.30;18.40;96765.00;;;;5068988;28;20230;-85
2022/05/06 03:46:03;;;;;;;5.70;5.30;;;17.80;72.20;18.30;96780.00;;;;5064885;28;20713;-85
2022/05/06 03:48:30;;;;;;;6.20;5.70;;;17.90;72.20;18.30;96774.00;;;;5064868;28;20207;-85
2022/05/06 03:53:43;;;;;;;5.57;5.07;;;17.80;72.10;18.30;96779.00;;;;5064204;28;20227;-85
2022/05/06 03:56:10;;;;;;;6.43;5.93;;;17.80;72.20;18.30;96782.00;;;;5056738;28;20219;-85
2022/05/06 03:58:37;;;;;;;5.90;5.40;;;17.80;72.40;18.30;96783.00;;;;5061173;28;20211;-85
2022/05/06 04:01:05;;;;;;;5.90;5.43;;;17.70;72.50;18.30;96781.00;;;;5072045;28;20200;-85
2022/05/06 04:03:32;;;;;;;5.83;5.33;;;17.70;72.80;18.30;96794.00;;;;5069089;28;20223;-85
2022/05/06 04:06:01;;;;;;;6.17;5.67;;;17.70;73.30;18.20;96801.00;;;;5064176;28;20235;-86
2022/05/06 04:08:28;;;;;;;6.67;6.17;;;17.70;74.20;18.20;96795.00;;;;5064009;28;20199;-85
2022/05/06 04:10:55;;;;;;;6.63;6.13;;;17.70;74.80;18.20;96810.00;;;;5074965;28;20196;-85
2022/05/06 04:13:22;;;;;;;6.10;5.67;;;17.70;75.40;18.20;96816.00;;;;5061565;28;20572;-85
2022/05/06 04:15:50;;;;;;;7.03;6.43;;;17.60;75.60;18.10;96812.00;;;;5063326;28;20588;-85
2022/05/06 04:18:18;;;;;;;6.17;5.70;;;17.60;76.00;18.10;96814.00;;;;5069940;28;20200;-85
2022/05/06 04:23:31;;;;;;;7.20;6.60;;;17.50;76.40;17.90;96813.00;;;;5061667;28;20219;-84
2022/05/06 04:26:00;;;;;;;6.73;6.23;;;17.40;76.50;17.90;96818.00;;;;5062267;28;20212;-84
2022/05/06 04:28:28;;;;;;;6.93;6.30;;;17.40;76.90;17.80;96816.00;;;;5073111;28;20645;-85
2022/05/06 04:30:55;;;;;;;6.60;6.00;;;17.30;77.60;17.80;96814.00;;;;5076710;28;20192;-85
2022/05/06 04:33:24;;;;;;;6.90;6.30;;;17.30;77.90;17.80;96812.00;;;;5059833;28;20200;-85
2022/05/06 04:35:53;;;;;;;7.37;6.77;;;17.20;78.10;17.80;96822.00;;;;5055480;28;20266;-85
2022/05/06 04:38:21;;;;;;;7.03;6.53;;;17.20;78.50;17.80;96822.00;;;;5067055;28;20210;-84
2022/05/06 04:40:50;;;;;;;7.20;6.50;;;17.20;78.60;17.70;96825.00;;;;5060687;28;20791;-84
2022/05/06 04:43:20;;;;;;;7.33;6.83;;;17.10;78.70;17.70;96832.00;;;;5059739;28;20203;-84
2022/05/06 04:45:49;;;;;;;7.00;6.40;;;17.20;79.10;17.70;96833.00;;;;5055085;28;20225;-84
2022/05/06 04:48:16;;;;;;;6.93;6.43;;;17.10;79.10;17.70;96829.00;;;;5068310;28;20200;-84
2022/05/06 04:50:44;;;;;;;7.37;6.77;;;17.10;79.30;17.60;96833.00;;;;5071293;28;20210;-84
2022/05/06 04:53:12;;;;;;;7.37;6.70;;;17.10;79.70;17.60;96832.00;;;;5065798;28;20188;-84
2022/05/06 04:55:42;;;;;;;7.73;7.03;;;17.00;79.70;17.60;96836.00;;;;5072389;28;20227;-84
2022/05/06 04:58:11;;;;;;;7.93;7.23;;;17.00;79.90;17.60;96840.00;;;;5076466;28;20279;-84
2022/05/06 05:00:43;;;;;;;7.80;7.00;;;17.00;80.00;17.60;96845.00;;;;5062440;28;20185;-84
2022/05/06 05:03:11;;;;;;;7.60;7.00;;;17.00;80.10;17.60;96853.00;;;;5055910;28;20670;-84
2022/05/06 05:05:38;;;;;;;8.07;7.27;;;16.90;80.10;17.60;96845.00;;;;5063871;28;20220;-84
2022/05/06 05:08:08;;;;;;;8.50;7.37;;;16.90;80.10;17.50;96844.00;;;;5054316;28;20204;-84
2022/05/06 05:10:36;;;;;;;7.47;6.87;;;16.90;80.30;17.50;96845.00;;;;5066581;28;20263;-84
2022/05/06 05:13:03;;;;;;;8.70;7.80;;;16.90;80.50;17.50;96851.00;;;;5069064;28;20204;-85
2022/05/06 05:15:32;;;;;;;7.93;7.20;;;16.90;80.70;17.50;96843.00;;;;5054720;28;20225;-84
2022/05/06 05:17:59;;;;;;;7.27;6.67;;;16.80;81.00;17.50;96846.00;;;;5054743;28;20200;-84
2022/05/06 05:20:26;;;;;;;8.50;7.70;;;16.90;81.40;17.40;96848.00;;;;5069565;28;20187;-84
2022/05/06 05:22:53;;;;;;;8.33;7.53;;;16.80;81.60;17.40;96843.00;;;;5062478;28;20569;-85
2022/05/06 05:25:20;;;;;;;7.30;6.70;;;16.80;81.90;17.40;96852.00;;;;5063376;28;20589;-84
2022/05/06 05:27:47;;;;;;;7.83;7.13;;;16.80;82.00;17.40;96840.00;;;;5069953;28;20210;-84
2022/05/06 05:30:14;;;;;;;7.50;6.83;;;16.80;82.10;17.30;96842.00;;;;5064583;28;20578;-85
2022/05/06 05:32:43;;;;;;;7.50;6.90;;;16.70;82.20;17.30;96853.00;;;;5056639;28;20258;-85
2022/05/06 05:35:10;;;;;;;7.47;6.87;;;16.70;82.40;17.30;96853.00;;;;5068571;28;20712;-85
2022/05/06 05:37:37;;;;;;;8.67;7.87;;;16.70;82.40;17.30;96854.00;;;;5062673;28;20203;-85
2022/05/06 05:40:06;;;;;;;7.27;6.77;;;16.70;82.30;17.30;96848.00;;;;5058066;28;20200;-85
2022/05/06 05:42:33;;;;;;;7.47;6.87;;;16.70;82.40;17.30;96849.00;;;;5052801;28;20258;-84
2022/05/06 05:50:30;;;;;;;8.30;7.60;;;16.70;83.00;17.30;96862.00;;;;5059755;28;20683;-86
2022/05/06 05:52:58;;;;;;;8.50;7.80;;;16.70;82.90;17.30;96862.00;;;;5061510;28;20199;-84
2022/05/06 05:55:25;;;;;;;8.97;8.07;;;16.70;82.90;17.30;96862.00;;;;5060098;28;20630;-84
2022/05/06 05:57:52;;;;;;;8.63;7.83;;;16.60;82.90;17.20;96853.00;;;;5063524;28;20199;-85
2022/05/06 06:00:19;;;;;;;8.50;7.70;;;16.60;83.00;17.20;96861.00;;;;5073949;28;20204;-85
2022/05/06 06:02:47;;;;;;;8.87;8.07;;;16.60;83.10;17.20;96863.00;;;;5067984;28;20192;-86
2022/05/06 06:05:15;;;;;;;8.63;7.93;;;16.60;83.30;17.20;96857.00;;;;5081699;28;20219;-86
2022/05/06 06:07:42;;;;;;;7.93;7.20;;;16.60;83.60;17.20;96859.00;;;;5067775;28;20188;-85
2022/05/06 06:10:10;;;;;;;9.07;8.17;;;16.60;83.80;17.20;96856.00;;;;5058712;28;20216;-84
2022/05/06 06:12:38;;;;;;;8.33;7.63;;;16.60;84.00;17.20;96856.00;;;;5060226;28;20688;-84
2022/05/06 06:15:07;;;;;;;8.70;7.90;;;16.60;84.00;17.20;96854.00;;;;5065155;28;20701;-86
2022/05/06 06:17:34;;;;;;;8.87;8.10;;;16.60;83.90;17.20;96852.00;;;;5058550;28;20568;-85
2022/05/06 06:20:05;;;;;;;8.40;7.70;;;16.60;83.80;17.10;96854.00;;;;5055743;28;20287;-85
2022/05/06 06:22:32;;;;;;;8.53;7.63;;;16.60;83.80;17.10;96864.00;;;;5062110;28;20196;-83
2022/05/06 06:24:59;;;;;;;9.40;8.50;;;16.50;83.80;17.10;96839.00;;;;5070340;28;20231;-83
2022/05/06 06:27:28;;;;;;;9.63;8.70;;;16.50;83.90;17.10;96840.00;;;;5079132;28;20192;-82
2022/05/06 06:29:55;;;;;;;9.53;8.67;;;16.50;84.00;17.10;96844.00;;;;5077520;28;20220;-82
2022/05/06 06:32:22;;;;;;;9.23;8.33;;;16.60;84.10;17.10;96837.00;;;;5062442;28;20197;-83
2022/05/06 06:34:51;;;;;;;8.97;8.20;;;16.50;84.30;17.10;96838.00;;;;5068348;28;20223;-83
2022/05/06 06:37:21;;;;;;;9.43;8.43;;;16.50;84.40;17.10;96841.00;;;;5065828;28;20647;-82
2022/05/06 06:39:48;;;;;;;10.13;9.10;;;16.50;84.50;17.00;96842.00;;;;5058718;28;20232;-82
2022/05/06 06:42:15;;;;;;;9.77;8.77;;;16.50;84.60;17.00;96842.00;;;;5067299;28;20561;-83
2022/05/06 06:44:42;;;;;;;10.27;9.37;;;16.50;84.60;17.10;96841.00;;;;5071607;28;20612;-84
2022/05/06 06:47:10;;;;;;;10.27;9.37;;;16.50;84.80;17.10;96838.00;;;;5055873;28;20220;-85
2022/05/06 06:49:37;;;;;;;10.03;9.13;;;16.50;84.90;17.10;96840.00;;;;5069466;28;20722;-86
2022/05/06 06:52:05;;;;;;;10.27;9.37;;;16.50;84.90;17.10;96842.00;;;;5062965;28;20200;-84
2022/05/06 06:54:33;;;;;;;9.60;8.80;;;16.50;85.00;17.20;96841.00;;;;5064942;28;20558;-86
2022/05/06 06:57:00;;;;;;;10.17;9.17;;;16.40;85.00;17.20;96845.00;;;;5065385;28;20681;-85
2022/05/06 06:59:27;;;;;;;9.47;8.67;;;16.50;85.00;17.20;96843.00;;;;5057863;28;20212;-85
2022/05/06 07:01:54;;;;;;;9.73;8.93;;;16.60;85.10;17.30;96841.00;;;;5075910;28;20204;-84
2022/05/06 07:04:22;;;;;;;10.03;9.07;;;16.60;85.10;17.30;96842.00;;;;5074288;28;20224;-85
2022/05/06 07:12:19;;;;;;;10.67;9.60;;;16.70;85.20;17.40;96861.00;;;;5063102;28;20676;-85
2022/05/06 07:14:46;;;;;;;9.97;9.07;;;16.70;85.20;17.30;96853.00;;;;5061797;28;20217;-85
2022/05/06 07:17:15;;;;;;;10.10;9.17;;;16.70;85.10;17.30;96862.00;;;;5070272;28;20196;-84
2022/05/06 07:19:44;;;;;;;10.57;9.67;;;16.70;85.20;17.40;96863.00;;;;5086301;28;20195;-84
2022/05/06 07:22:14;;;;;;;10.07;9.17;;;16.70;85.20;17.40;96867.00;;;;5081394;28;20670;-85
2022/05/06 07:24:42;;;;;;;10.23;9.33;;;16.70;85.20;17.40;96868.00;;;;5076155;28;20953;-83
2022/05/06 07:27:09;;;;;;;10.53;9.47;;;16.70;85.20;17.50;96869.00;;;;5065795;28;20197;-83
2022/05/06 07:29:36;;;;;;;10.77;9.77;;;16.80;85.40;17.50;96864.00;;;;5060549;28;20197;-84
2022/05/06 07:32:04;;;;;;;10.13;9.23;;;16.80;85.40;17.60;96863.00;;;;5059468;28;20265;-84
2022/05/06 07:34:31;;;;;;;9.83;8.97;;;16.90;85.40;17.70;96870.00;;;;5066440;28;20215;-87
2022/05/06 07:36:58;;;;;;;9.83;9.00;;;16.90;85.40;17.70;96871.00;;;;5077149;28;20200;-83
2022/05/06 07:39:25;;;;;;;10.53;9.37;;;17.00;85.40;17.80;96867.00;;;;5067996;28;20283;-85
2022/05/06 07:41:54;;;;;;;9.57;8.67;;;17.00;85.40;17.80;96868.00;;;;5068810;28;20287;-84
2022/05/06 07:44:21;;;;;;;9.57;8.77;;;17.00;85.20;17.80;96866.00;;;;5062703;28;20224;-84
2022/05/06 07:46:48;;;;;;;9.60;8.60;;;17.00;85.20;17.90;96872.00;;;;5063502;28;20242;-84
2022/05/06 07:49:16;;;;;;;9.90;9.00;;;17.10;85.10;17.90;96871.00;;;;5064948;28;20211;-83
2022/05/06 07:51:43;;;;;;;10.70;9.70;;;17.20;84.90;17.90;96870.00;;;;5068413;28;20196;-84
2022/05/06 07:54:10;;;;;;;9.77;8.97;;;17.30;85.00;17.90;96875.00;;;;5073265;28;20216;-83
2022/05/06 07:56:37;;;;;;;10.10;9.30;;;17.20;84.80;17.90;96867.00;;;;5066467;28;20206;-83
2022/05/06 07:59:06;;;;;;;10.30;9.37;;;17.20;84.90;17.90;96876.00;;;;5067203;28;20196;-84
2022/05/06 08:04:36;;;;;;;9.93;9.03;;;17.20;84.70;17.90;96877.00;;;;5056022;28;20239;-83
2022/05/06 08:07:06;;;;;;;9.97;8.90;;;17.30;84.60;17.90;96879.00;;;;5053407;28;20200;-84
2022/05/06 08:09:34;;;;;;;10.80;9.67;;;17.30;84.70;17.90;96876.00;;;;5062524;28;20556;-84
2022/05/06 08:12:01;;;;;;;11.47;10.37;;;17.30;84.60;18.00;96888.00;;;;5057697;28;20197;-84
2022/05/06 08:14:30;;;;;;;10.70;9.80;;;17.30;84.70;18.00;96884.00;;;;5054819;28;20215;-84
2022/05/06 08:16:58;;;;;;;10.60;9.63;;;17.30;84.70;18.00;96884.00;;;;5054382;28;20207;-84
2022/05/06 08:19:25;;;;;;;10.20;9.20;;;17.30;84.70;18.10;96887.00;;;;5071874;28;20199;-84
2022/05/06 08:21:53;;;;;;;10.60;9.60;;;17.40;84.80;18.10;96882.00;;;;5065401;28;20196;-85
2022/05/06 08:24:21;;;;;;;10.73;9.73;;;17.40;85.00;18.10;96892.00;;;;5065742;28;20686;-84
2022/05/06 08:26:49;;;;;;;10.90;9.90;;;17.40;84.90;18.20;96887.00;;;;5060373;28;20220;-83
2022/05/06 08:29:18;;;;;;;10.97;9.97;;;17.40;84.80;18.20;96884.00;;;;5063350;28;20199;-83
2022/05/06 08:31:47;;;;;;;11.27;10.10;;;17.50;84.70;18.20;96892.00;;;;5054322;28;20207;-84
2022/05/06 08:34:14;;;;;;;11.33;10.33;;;17.50;84.70;18.20;96892.00;;;;5070690;28;20592;-83
2022/05/06 08:36:44;;;;;;;10.00;9.07;;;17.50;84.70;18.20;96889.00;;;;5085790;28;20202;-84
2022/05/06 08:39:12;;;;;;;10.97;10.00;;;17.50;84.70;18.20;96888.00;;;;5066869;28;20208;-83
2022/05/06 08:41:42;;;;;;;10.40;9.40;;;17.60;84.80;18.20;96888.00;;;;5069547;28;20196;-84
2022/05/06 08:52:36;;;;;;;10.87;9.87;;;17.70;85.70;18.60;96899.00;;;;5062735;28;20211;-84
2022/05/06 08:55:06;;;;;;;10.97;9.90;;;17.70;86.10;18.70;96896.00;;;;5064670;28;20217;-84
2022/05/06 08:57:35;;;;;;;10.03;9.13;;;17.80;86.10;18.80;96897.00;;;;5057951;28;20196;-83
2022/05/06 09:00:04;;;;;;;11.10;10.10;;;17.90;85.90;18.90;96908.00;;;;5064688;28;20209;-84
2022/05/06 09:02:39;;;;;;;11.00;9.90;;;17.90;85.60;19.00;96909.00;;;;5065426;28;20193;-84
2022/05/06 09:05:16;;;;;;;10.93;9.97;;;18.10;85.50;19.00;96910.00;;;;5065355;28;20246;-84
2022/05/06 09:07:55;;;;;;;10.53;9.33;;;18.10;85.10;19.10;96915.00;;;;5061839;28;20249;-84
2022/05/06 09:10:22;;;;;;;9.93;9.03;;;18.20;85.10;19.10;96924.00;;;;5066093;28;20200;-83
2022/05/06 09:12:55;;;;;;;10.33;9.43;;;18.20;84.90;19.10;96922.00;;;;5070626;28;20699;-84
2022/05/06 09:18:10;;;;;;;9.60;8.80;;;18.30;84.20;19.00;96923.00;;;;5063192;28;20604;-84
2022/05/06 09:20:38;;;;;;;9.20;8.40;;;18.30;83.80;19.00;96921.00;;;;5065210;28;20189;-83
2022/05/06 09:23:24;;;;;;;10.70;9.53;;;18.30;83.80;19.00;96920.00;;;;5061296;28;20200;-84
2022/05/06 09:25:53;;;;;;;10.37;9.37;;;18.30;83.40;19.00;96920.00;;;;5072199;28;20575;-84
2022/05/06 09:28:26;;;;;;;9.53;8.73;;;18.30;83.50;18.90;96923.00;;;;5067823;28;20196;-84
2022/05/06 09:31:04;;;;;;;10.27;9.37;;;18.30;83.70;18.90;96916.00;;;;5070527;28;20661;-83
2022/05/06 09:33:35;;;;;;;9.60;8.80;;;18.30;83.70;18.90;96920.00;;;;5073792;28;20203;-84
2022/05/06 09:36:24;;;;;;;10.17;9.27;;;18.30;83.80;18.90;96928.00;;;;5072352;28;20232;-84
2022/05/06 09:39:03;;;;;;;9.87;8.97;;;18.30;83.60;18.90;96937.00;;;;5069573;28;20192;-84
2022/05/06 09:41:30;;;;;;;10.37;9.27;;;18.20;83.70;18.90;96931.00;;;;5069821;28;20200;-84
2022/05/06 09:44:01;;;;;;;10.00;9.10;;;18.30;83.90;18.90;96933.00;;;;5067645;28;20199;-84
2022/05/06 09:46:28;;;;;;;10.27;9.20;;;18.20;83.90;18.90;96938.00;;;;5072338;28;20208;-84
2022/05/06 09:48:58;;;;;;;12.87;10.33;;;18.20;83.80;18.80;96949.00;;;;5069790;28;20223;-84
2022/05/06 09:51:28;;;;;;;10.30;9.30;;;18.20;83.70;18.80;96949.00;;;;5076862;28;20192;-84
2022/05/06 09:53:57;;;;;;;10.27;9.37;;;18.10;83.50;18.80;96944.00;;;;5066723;28;20201;-84
2022/05/06 09:56:24;;;;;;;9.97;8.73;;;18.20;83.80;18.90;96946.00;;;;5075786;28;20555;-85
2022/05/06 09:58:53;;;;;;;9.37;8.57;;;18.20;83.90;18.90;96948.00;;;;5071021;28;20192;-85
2022/05/06 10:01:20;;;;;;;9.40;8.50;;;18.20;83.50;18.90;96948.00;;;;5073954;28;20200;-84
2022/05/06 10:03:53;;;;;;;8.87;8.17;;;18.20;83.10;18.90;96950.00;;;;5065811;28;20557;-85
2022/05/06 10:06:25;;;;;;;9.23;8.50;;;18.20;83.00;18.90;96940.00;;;;5071205;28;20252;-85
2022/05/06 10:09:03;;;;;;;9.80;8.90;;;18.20;83.00;18.90;96947.00;;;;5066953;28;20196;-85
2022/05/06 10:11:32;;;;;;;9.33;8.50;;;18.30;82.90;18.90;96948.00;;;;5069719;28;20207;-84
2022/05/06 10:14:03;;;;;;;9.70;8.80;;;18.20;83.00;18.90;96951.00;;;;5065765;28;20188;-84
2022/05/06 10:16:36;;;;;;;9.83;8.83;;;18.20;82.90;18.80;96957.00;;;;5057739;28;20291;-84
2022/05/06 10:19:03;;;;;;;9.63;8.73;;;18.30;83.00;18.80;96948.00;;;;5057109;28;20204;-84
2022/05/06 10:21:49;;;;;;;9.47;8.57;;;18.10;82.90;18.80;96947.00;;;;5071930;28;20188;-84
2022/05/06 10:24:18;;;;;;;9.30;8.33;;;18.20;82.00;18.70;96953.00;;;;5076505;28;20216;-85
2022/05/06 10:26:47;;;;;;;9.50;8.57;;;18.10;82.50;18.70;96955.00;;;;5076033;28;20228;-85
2022/05/06 10:32:58;;;;;;;8.83;8.03;;;18.10;82.70;18.60;96958.00;;;;5055115;28;20338;-88
2022/05/06 10:35:40;;;;;;;11.97;8.23;;;18.10;82.20;18.70;96955.00;;;;5065595;28;20232;-85
2022/05/06 10:38:22;;;;;;;8.83;8.00;;;18.10;82.60;18.70;96950.00;;;;5066137;28;20200;-84
2022/05/06 10:41:02;;;;;;;9.53;8.43;;;18.00;82.60;18.70;96953.00;;;;5078806;28;20177;-84
2022/05/06 10:43:51;;;;;;;8.87;8.07;;;18.00;82.70;18.70;96950.00;;;;5077372;28;20196;-84
2022/05/06 10:46:51;;;;;;;8.50;7.80;;;18.00;82.80;18.70;96949.00;;;;5078515;28;20226;-84
2022/05/06 10:49:52;;;;;;;9.33;8.30;;;18.00;82.70;18.60;96949.00;;;;5069026;28;20653;-83
2022/05/06 10:52:45;;;;;;;8.17;7.37;;;18.00;82.60;18.60;96949.00;;;;5056722;28;20686;-85
2022/05/06 10:55:32;;;;;;;8.77;8.00;;;18.00;82.20;18.60;96951.00;;;;5073008;28;20208;-84
2022/05/06 10:58:23;;;;;;;9.30;8.40;;;18.00;82.30;18.60;96948.00;;;;5073990;28;20200;-84
2022/05/06 11:00:59;;;;;;;8.53;7.73;;;18.10;82.80;18.60;96953.00;;;;5060344;28;20196;-84
2022/05/06 11:03:26;;;;;;;10.53;9.53;;;18.00;83.30;18.70;96943.00;;;;5068933;28;20192;-84
2022/05/06 11:05:53;;;;;;;9.23;8.43;;;18.00;83.90;18.80;96939.00;;;;5075058;28;20230;-84
2022/05/06 11:08:21;;;;;;;9.23;8.40;;;18.00;84.40;18.90;96939.00;;;;5075857;28;20280;-83
2022/05/06 11:10:50;;;;;;;9.07;8.27;;;18.00;84.70;19.10;96946.00;;;;5059569;28;20228;-85
2022/05/06 11:13:18;;;;;;;9.57;8.60;;;18.10;84.80;19.20;96940.00;;;;5070036;28;20196;-85
2022/05/06 11:15:45;;;;;;;9.07;8.27;;;18.20;84.80;19.20;96946.00;;;;5065420;28;20258;-86
2022/05/06 11:18:12;;;;;;;9.30;8.50;;;18.30;84.60;19.30;96944.00;;;;5072809;28;20196;-84
2022/05/06 11:20:40;;;;;;;9.70;7.90;;;18.40;84.30;19.40;96946.00;;;;5068079;28;20616;-84
2022/05/06 11:23:09;;;;;;;9.07;8.23;;;18.40;83.90;19.40;96939.00;;;;5077139;28;20198;-84
2022/05/06 11:25:38;;;;;;;8.40;7.63;;;18.50;83.80;19.50;96947.00;;;;5067481;28;20228;-84
2022/05/06 11:28:16;;;;;;;8.47;7.53;;;18.60;83.90;19.70;96940.00;;;;5066111;28;20196;-83
2022/05/06 11:30:45;;;;;;;8.73;7.93;;;18.60;84.90;19.80;96938.00;;;;5076239;28;20203;-84
2022/05/06 11:33:24;;;;;;;8.43;7.63;;;18.70;84.40;19.90;96945.00;;;;5076624;28;20196;-83
2022/05/06 11:35:53;;;;;;;8.93;8.13;;;18.90;84.50;20.00;96942.00;;;;5072662;28;20221;-84
2022/05/06 11:38:31;;;;;;;8.63;7.77;;;19.00;84.80;20.10;96946.00;;;;5055877;28;20266;-84
2022/05/06 11:41:07;;;;;;;8.30;7.60;;;19.10;84.00;20.20;96945.00;;;;5073104;28;20182;-84